createdAt,value
2023-02-03T00:02:51.700Z,96.68
2023-02-03T00:05:54.930Z,96.58
2023-02-03T00:08:59.506Z,96.83
2023-02-03T00:12:02.163Z,97.28
2023-02-03T00:15:05.216Z,97.57
2023-02-03T00:18:07.759Z,98.14
2023-02-03T00:21:10.325Z,98.37
2023-02-03T00:24:13.044Z,98.99
2023-02-03T00:27:15.685Z,99.17
2023-02-03T00:30:18.447Z,99.27
2023-02-03T00:33:21.153Z,99.37
2023-02-03T00:36:24.760Z,99.15
2023-02-03T00:39:30.183Z,98.63
2023-02-03T00:42:35.066Z,98.70
2023-02-03T00:45:37.637Z,99.07
2023-02-03T00:48:40.372Z,99.23
2023-02-03T00:51:42.946Z,99.39
2023-02-03T00:54:45.575Z,99.03
2023-02-03T00:57:48.206Z,99.29
2023-02-03T01:00:51.029Z,98.69
2023-02-03T01:03:56.154Z,98.53
2023-02-03T01:07:00.011Z,98.25
2023-02-03T01:10:03.446Z,98.02
2023-02-03T01:13:06.094Z,97.39
2023-02-03T01:16:13.586Z,97.66
2023-02-03T01:19:17.011Z,98.09
2023-02-03T01:22:19.967Z,97.58
2023-02-03T01:25:22.549Z,97.53
2023-02-03T01:28:25.267Z,96.92
2023-02-03T01:31:40.940Z,97.18
2023-02-03T01:34:43.702Z,96.80
2023-02-03T01:37:46.714Z,96.38
2023-02-03T01:40:49.294Z,96.16
2023-02-03T01:43:54.640Z,96.40
2023-02-03T01:46:57.290Z,95.99
2023-02-03T01:50:09.019Z,95.82
2023-02-03T01:53:14.268Z,95.77
2023-02-03T01:56:17.443Z,95.92
2023-02-03T01:59:20.735Z,96.06
2023-02-03T02:02:23.419Z,95.80
2023-02-03T02:05:28.813Z,96.07
2023-02-03T02:08:31.578Z,96.27
2023-02-03T02:11:34.903Z,96.58
2023-02-03T02:14:38.247Z,96.44
2023-02-03T02:17:52.996Z,96.68
2023-02-03T02:21:17.010Z,96.98
2023-02-03T02:24:37.761Z,97.19
2023-02-03T02:28:24.495Z,97.44
2023-02-03T02:31:42.449Z,97.70
2023-02-03T02:35:14.705Z,98.06
2023-02-03T02:38:49.490Z,98.32
2023-02-03T02:42:02.725Z,98.62
2023-02-03T02:45:32.376Z,98.67
2023-02-03T02:48:36.745Z,99.12
2023-02-03T02:51:41.059Z,99.42
2023-02-03T02:54:47.325Z,99.29
2023-02-03T02:57:50.732Z,99.41
2023-02-03T03:00:53.369Z,99.53
2023-02-03T03:03:56.435Z,100.00
2023-02-03T03:07:08.456Z,100.00
2023-02-03T03:10:13.627Z,100.00
2023-02-03T03:13:22.655Z,100.00
2023-02-03T03:16:27.401Z,100.00
2023-02-03T03:19:34.289Z,100.00
2023-02-03T03:22:42.550Z,100.00
2023-02-03T03:25:49.501Z,100.00
2023-02-03T03:29:01.438Z,100.00
2023-02-03T03:32:04.596Z,100.00
2023-02-03T03:35:08.120Z,100.00
2023-02-03T03:38:17.096Z,100.00
2023-02-03T03:41:27.490Z,100.00
2023-02-03T03:44:43.677Z,100.00
2023-02-03T03:47:59.961Z,100.00
2023-02-03T03:51:12.067Z,100.00
2023-02-03T03:54:20.989Z,100.00
2023-02-03T03:57:27.061Z,100.00
2023-02-03T04:00:32.016Z,100.00
2023-02-03T04:03:49.195Z,100.00
2023-02-03T04:06:54.949Z,100.00
2023-02-03T04:09:57.750Z,100.00
2023-02-03T04:13:00.430Z,100.00
2023-02-03T04:16:03.062Z,100.00
2023-02-03T04:19:08.320Z,100.00
2023-02-03T04:22:11.169Z,100.00
2023-02-03T04:25:13.813Z,100.00
2023-02-03T04:28:16.633Z,100.00
2023-02-03T04:31:19.427Z,100.00
2023-02-03T04:34:22.129Z,100.00
2023-02-03T04:37:26.993Z,100.00
2023-02-03T04:40:29.904Z,100.00
2023-02-03T04:43:32.684Z,100.00
2023-02-03T04:46:35.632Z,100.00
2023-02-03T04:49:38.254Z,100.00
2023-02-03T04:52:40.818Z,100.00
2023-02-03T04:55:47.867Z,100.00
2023-02-03T04:58:50.590Z,100.00
2023-02-03T05:01:53.302Z,100.00
2023-02-03T05:04:55.908Z,100.00
2023-02-03T05:07:58.485Z,100.00
2023-02-03T05:11:02.414Z,100.00
2023-02-03T05:14:05.267Z,100.00
2023-02-03T05:17:07.889Z,100.00
2023-02-03T05:20:11.117Z,100.00
2023-02-03T05:23:13.853Z,100.00
2023-02-03T05:26:16.775Z,100.00
2023-02-03T05:29:20.193Z,100.00
2023-02-03T05:32:22.880Z,100.00
2023-02-03T05:35:25.460Z,100.00
2023-02-03T05:38:28.310Z,100.00
2023-02-03T05:41:49.475Z,100.00
2023-02-03T05:44:52.113Z,100.00
2023-02-03T05:47:54.812Z,100.00
2023-02-03T05:50:57.744Z,100.00
2023-02-03T05:54:00.371Z,100.00
2023-02-03T05:57:02.987Z,100.00
2023-02-03T06:00:07.496Z,100.00
2023-02-03T06:03:10.211Z,100.00
2023-02-03T06:06:12.967Z,100.00
2023-02-03T06:09:15.794Z,100.00
2023-02-03T06:12:18.683Z,100.00
2023-02-03T06:15:21.386Z,100.00
2023-02-03T06:18:24.285Z,100.00
2023-02-03T06:21:27.656Z,100.00
2023-02-03T06:24:30.428Z,100.00
2023-02-03T06:27:33.105Z,100.00
2023-02-03T06:30:36.078Z,100.00
2023-02-03T06:33:38.952Z,100.00
2023-02-03T06:36:42.000Z,100.00
2023-02-03T06:39:44.782Z,100.00
2023-02-03T06:42:48.441Z,100.00
2023-02-03T06:45:51.362Z,100.00
2023-02-03T06:48:54.181Z,100.00
2023-02-03T06:51:57.013Z,100.00
2023-02-03T06:54:59.753Z,100.00
2023-02-03T06:58:02.592Z,100.00
2023-02-03T07:01:05.369Z,100.00
2023-02-03T07:04:08.472Z,100.00
2023-02-03T07:07:12.620Z,100.00
2023-02-03T07:10:15.530Z,100.00
2023-02-03T07:13:18.407Z,100.00
2023-02-03T07:16:21.413Z,100.00
2023-02-03T07:19:24.573Z,100.00
2023-02-03T07:22:27.326Z,100.00
2023-02-03T07:25:31.215Z,100.00
2023-02-03T07:28:36.689Z,100.00
2023-02-03T07:31:39.961Z,100.00
2023-02-03T07:34:42.755Z,100.00
2023-02-03T07:37:45.642Z,100.00
2023-02-03T07:40:48.417Z,100.00
2023-02-03T07:43:51.124Z,100.00
2023-02-03T07:46:53.867Z,100.00
2023-02-03T07:49:56.691Z,100.00
2023-02-03T07:53:00.290Z,100.00
2023-02-03T07:56:04.731Z,100.00
2023-02-03T07:59:07.711Z,100.00
2023-02-03T08:02:11.587Z,100.00
2023-02-03T08:05:14.949Z,100.00
2023-02-03T08:08:17.773Z,100.00
2023-02-03T08:11:20.675Z,100.00
2023-02-03T08:14:24.142Z,100.00
2023-02-03T08:17:27.277Z,100.00
2023-02-03T08:20:30.435Z,100.00
2023-02-03T08:23:33.510Z,100.00
2023-02-03T08:26:37.246Z,100.00
2023-02-03T08:29:40.283Z,100.00
2023-02-03T08:32:43.152Z,100.00
2023-02-03T08:35:47.596Z,100.00
2023-02-03T08:38:50.551Z,100.00
2023-02-03T08:41:53.579Z,100.00
2023-02-03T08:44:56.582Z,100.00
2023-02-03T08:48:00.040Z,100.00
2023-02-03T08:51:02.853Z,100.00
2023-02-03T08:54:06.401Z,100.00
2023-02-03T08:57:09.429Z,100.00
2023-02-03T09:00:13.043Z,100.00
2023-02-03T09:03:15.938Z,100.00
2023-02-03T09:06:20.728Z,100.00
2023-02-03T09:09:26.833Z,100.00
2023-02-03T09:12:29.707Z,100.00
2023-02-03T09:15:35.670Z,100.00
2023-02-03T09:18:39.368Z,100.00
2023-02-03T09:21:46.811Z,100.00
2023-02-03T09:24:51.713Z,100.00
2023-02-03T09:27:54.718Z,100.00
2023-02-03T09:31:18.300Z,100.00
2023-02-03T09:34:21.852Z,100.00
2023-02-03T09:37:24.793Z,100.00
2023-02-03T09:40:31.667Z,100.00
2023-02-03T09:43:42.303Z,100.00
2023-02-03T09:46:49.485Z,100.00
2023-02-03T09:50:03.976Z,100.00
2023-02-03T09:53:16.479Z,100.00
2023-02-03T09:56:34.380Z,100.00
2023-02-03T10:15:36.350Z,100.00
2023-02-03T10:18:47.331Z,100.00
2023-02-03T10:21:55.553Z,100.00
2023-02-03T10:25:01.865Z,100.00
2023-02-03T10:28:13.679Z,100.00
2023-02-03T10:31:21.742Z,100.00
2023-02-03T10:34:26.462Z,100.00
2023-02-03T10:37:37.840Z,100.00
2023-02-03T10:40:40.917Z,100.00
2023-02-03T10:43:53.290Z,100.00
2023-02-03T10:46:58.856Z,100.00
2023-02-03T10:50:08.314Z,100.00
2023-02-03T10:53:33.469Z,100.00
2023-02-03T10:56:38.291Z,100.00
2023-02-03T10:59:46.984Z,100.00
2023-02-03T11:03:27.142Z,100.00
2023-02-03T11:06:31.295Z,100.00
2023-02-03T11:09:43.258Z,100.00
2023-02-03T11:12:46.440Z,100.00
2023-02-03T11:16:04.572Z,100.00
2023-02-03T11:19:15.377Z,100.00
2023-02-03T11:22:34.340Z,100.00
2023-02-03T11:25:44.710Z,100.00
2023-02-03T11:28:49.669Z,100.00
2023-02-03T11:31:53.852Z,100.00
2023-02-03T11:34:59.381Z,100.00
2023-02-03T11:38:37.037Z,100.00
2023-02-03T11:41:40.700Z,100.00
2023-02-03T11:44:45.375Z,100.00
2023-02-03T11:47:51.531Z,100.00
2023-02-03T11:51:17.812Z,100.00
2023-02-03T11:54:41.808Z,100.00
2023-02-03T11:58:11.435Z,100.00
2023-02-03T12:01:46.321Z,100.00
2023-02-03T12:05:16.334Z,100.00
2023-02-03T12:08:34.233Z,100.00
2023-02-03T12:12:04.962Z,100.00
2023-02-03T12:15:47.389Z,100.00
2023-02-03T12:18:57.151Z,100.00
2023-02-03T12:22:24.469Z,100.00
2023-02-03T12:25:51.995Z,100.00
2023-02-03T12:29:18.608Z,100.00
2023-02-03T12:32:32.519Z,100.00
2023-02-03T12:35:40.364Z,100.00
2023-02-03T12:38:55.131Z,100.00
2023-02-03T12:42:14.745Z,100.00
2023-02-03T12:45:26.711Z,100.00
2023-02-03T12:48:48.209Z,100.00
2023-02-03T12:52:23.485Z,100.00
2023-02-03T12:55:36.283Z,100.00
2023-02-03T12:58:51.380Z,100.00
2023-02-03T13:01:59.691Z,100.00
2023-02-03T13:05:15.366Z,100.00
2023-02-03T13:08:32.602Z,100.00
2023-02-03T13:11:57.294Z,100.00
2023-02-03T13:15:06.581Z,100.00
2023-02-03T13:18:29.820Z,100.00
2023-02-03T13:21:32.810Z,100.00
2023-02-03T13:24:35.951Z,100.00
2023-02-03T13:27:55.909Z,100.00
2023-02-03T13:31:24.737Z,100.00
2023-02-03T13:34:39.389Z,100.00
2023-02-03T13:37:53.803Z,100.00
2023-02-03T13:41:08.434Z,100.00
2023-02-03T13:44:18.552Z,100.00
2023-02-03T13:47:30.574Z,100.00
2023-02-03T13:50:43.087Z,100.00
2023-02-03T13:53:52.727Z,100.00
2023-02-03T13:57:00.081Z,100.00
2023-02-03T14:00:06.788Z,100.00
2023-02-03T14:03:20.452Z,100.00
2023-02-03T14:06:55.662Z,100.00
2023-02-03T14:10:14.397Z,100.00
2023-02-03T14:13:21.687Z,100.00
2023-02-03T14:16:25.830Z,100.00
2023-02-03T14:19:29.355Z,100.00
2023-02-03T14:22:34.239Z,100.00
2023-02-03T14:25:44.388Z,100.00
2023-02-03T14:28:48.622Z,100.00
2023-02-03T14:32:00.370Z,100.00
2023-02-03T14:35:50.385Z,100.00
2023-02-03T14:38:53.636Z,100.00
2023-02-03T14:42:03.102Z,100.00
2023-02-03T14:45:14.201Z,100.00
2023-02-03T14:48:49.223Z,100.00
2023-02-03T14:51:58.135Z,100.00
2023-02-03T14:55:32.365Z,100.00
2023-02-03T14:58:48.630Z,100.00
2023-02-03T15:01:52.105Z,100.00
2023-02-03T15:05:38.630Z,100.00
2023-02-03T15:08:46.057Z,100.00
2023-02-03T15:11:53.190Z,100.00
2023-02-03T15:15:20.767Z,100.00
2023-02-03T15:18:30.827Z,100.00
2023-02-03T15:21:41.938Z,100.00
2023-02-03T15:24:54.141Z,100.00
2023-02-03T15:28:11.779Z,100.00
2023-02-03T15:31:22.978Z,100.00
2023-02-03T15:34:53.152Z,100.00
2023-02-03T15:38:03.431Z,100.00
2023-02-03T15:41:08.817Z,100.00
2023-02-03T15:44:25.696Z,100.00
2023-02-03T15:47:42.342Z,100.00
2023-02-03T15:50:52.743Z,100.00
2023-02-03T15:54:02.677Z,100.00
2023-02-03T15:57:11.700Z,100.00
2023-02-03T16:00:27.587Z,100.00
2023-02-03T16:03:41.080Z,100.00
2023-02-03T16:06:47.318Z,100.00
2023-02-03T16:09:58.140Z,100.00
2023-02-03T16:13:28.541Z,100.00
2023-02-03T16:17:04.355Z,100.00
2023-02-03T16:20:11.642Z,100.00
2023-02-03T16:23:23.958Z,100.00
2023-02-03T16:26:31.619Z,100.00
2023-02-03T16:29:56.678Z,100.00
2023-02-03T16:33:27.375Z,100.00
2023-02-03T16:36:49.247Z,100.00
2023-02-03T16:40:12.537Z,100.00
2023-02-03T16:43:35.641Z,100.00
2023-02-03T16:46:57.089Z,100.00
2023-02-03T16:50:29.273Z,100.00
2023-02-03T16:53:40.733Z,100.00
2023-02-03T16:56:43.662Z,100.00
2023-02-03T16:59:46.603Z,100.00
2023-02-03T17:02:50.803Z,100.00
2023-02-03T17:05:54.757Z,99.05
2023-02-03T17:08:58.984Z,100.00
2023-02-03T17:12:04.391Z,100.00
2023-02-03T17:15:07.847Z,99.32
2023-02-03T17:18:17.786Z,98.73
2023-02-03T17:21:29.048Z,97.11
2023-02-03T17:24:33.999Z,99.14
2023-02-03T17:27:37.193Z,98.08
2023-02-03T17:30:40.802Z,100.00
2023-02-03T17:33:44.250Z,100.00
2023-02-03T17:36:47.309Z,100.00
2023-02-03T17:56:21.290Z,99.03
2023-02-03T17:59:24.701Z,96.98
2023-02-03T18:02:35.543Z,97.43
2023-02-03T18:05:40.547Z,98.44
2023-02-03T18:08:44.700Z,94.90
2023-02-03T18:11:47.995Z,94.02
2023-02-03T18:14:52.239Z,93.02
2023-02-03T18:17:55.304Z,93.41
2023-02-03T18:20:59.599Z,91.97
2023-02-03T18:24:02.875Z,94.16
2023-02-03T18:27:05.844Z,92.67
2023-02-03T18:30:11.842Z,93.47
2023-02-03T18:33:15.485Z,92.30
2023-02-03T18:36:21.533Z,91.51
2023-02-03T18:39:24.686Z,90.36
2023-02-03T18:42:30.935Z,90.76
2023-02-03T18:45:36.680Z,92.05
2023-02-03T18:48:40.726Z,94.92
2023-02-03T18:51:44.401Z,98.33
2023-02-03T18:54:47.724Z,100.00
2023-02-03T18:57:51.067Z,100.00
2023-02-03T19:00:56.333Z,100.00
2023-02-03T19:04:01.618Z,100.00
2023-02-03T19:07:04.830Z,100.00
2023-02-03T19:10:08.773Z,100.00
2023-02-03T19:13:12.544Z,100.00
2023-02-03T19:16:19.493Z,100.00
2023-02-03T19:19:22.844Z,97.57
2023-02-03T19:22:26.150Z,96.97
2023-02-03T19:25:29.625Z,98.75
2023-02-03T19:28:35.369Z,99.94
2023-02-03T19:31:39.337Z,100.00
2023-02-03T19:34:42.672Z,100.00
2023-02-03T19:37:46.630Z,100.00
2023-02-03T19:40:50.557Z,100.00
2023-02-03T19:43:53.829Z,100.00
2023-02-03T19:46:57.022Z,100.00
2023-02-03T19:50:03.529Z,99.61
2023-02-03T19:53:09.027Z,100.00
2023-02-03T19:56:13.842Z,100.00
2023-02-03T19:59:17.173Z,98.28
2023-02-03T20:02:20.731Z,98.63
2023-02-03T20:05:24.034Z,99.97
2023-02-03T20:08:27.532Z,99.90
2023-02-03T20:11:30.714Z,97.40
2023-02-03T20:14:34.197Z,97.87
2023-02-03T20:17:37.547Z,98.22
2023-02-03T20:20:41.805Z,98.30
2023-02-03T20:23:45.137Z,98.42
2023-02-03T20:26:48.352Z,98.59
2023-02-03T20:29:51.609Z,97.51
2023-02-03T20:32:56.473Z,97.98
2023-02-03T20:35:59.703Z,98.21
2023-02-03T20:39:03.111Z,96.59
2023-02-03T20:42:17.646Z,97.85
2023-02-03T20:45:23.213Z,96.66
2023-02-03T20:48:27.042Z,96.56
2023-02-03T20:51:30.586Z,95.92
2023-02-03T20:54:34.888Z,97.23
2023-02-03T20:57:41.427Z,96.93
2023-02-03T21:00:45.122Z,97.47
2023-02-03T21:04:07.208Z,98.07
2023-02-03T21:07:15.034Z,98.58
2023-02-03T21:10:22.412Z,98.51
2023-02-03T21:13:26.516Z,98.90
2023-02-03T21:16:39.608Z,98.36
2023-02-03T21:19:43.364Z,97.24
2023-02-03T21:22:46.566Z,97.97
2023-02-03T21:25:49.861Z,95.93
2023-02-03T21:29:01.033Z,95.82
2023-02-03T21:32:14.566Z,95.84
2023-02-03T21:35:24.299Z,95.89
2023-02-03T21:38:33.680Z,95.79
2023-02-03T21:41:39.712Z,95.13
2023-02-03T21:44:43.360Z,95.34
2023-02-03T21:47:51.470Z,95.69
2023-02-03T21:50:56.579Z,95.42
2023-02-03T21:54:22.696Z,95.31
2023-02-03T21:57:26.018Z,94.37
2023-02-03T22:00:39.227Z,94.66
2023-02-03T22:03:45.239Z,95.54
2023-02-03T22:06:53.384Z,95.49
2023-02-03T22:09:56.260Z,95.74
2023-02-03T22:12:59.198Z,97.16
2023-02-03T22:16:04.199Z,97.48
2023-02-03T22:19:07.126Z,98.60
2023-02-03T22:22:09.986Z,99.12
2023-02-03T22:25:12.901Z,100.00
2023-02-03T22:28:16.125Z,100.00
2023-02-03T22:31:20.033Z,100.00
2023-02-03T22:34:23.691Z,100.00
2023-02-03T22:37:26.652Z,100.00
2023-02-03T22:40:29.768Z,100.00
2023-02-03T22:43:35.907Z,100.00
2023-02-03T22:46:39.109Z,100.00
2023-02-03T22:49:45.245Z,100.00
2023-02-03T22:52:48.311Z,100.00
2023-02-03T22:55:51.190Z,100.00
2023-02-03T22:58:53.992Z,100.00
2023-02-03T23:01:57.541Z,100.00
2023-02-03T23:05:00.964Z,100.00
2023-02-03T23:08:03.993Z,100.00
2023-02-03T23:11:06.821Z,100.00
2023-02-03T23:14:10.529Z,100.00
2023-02-03T23:17:13.344Z,100.00
2023-02-03T23:20:18.382Z,100.00
2023-02-03T23:23:21.355Z,100.00
2023-02-03T23:26:24.316Z,100.00
2023-02-03T23:29:27.198Z,100.00
2023-02-03T23:32:30.243Z,100.00
2023-02-03T23:35:49.514Z,100.00
2023-02-03T23:38:56.012Z,100.00
2023-02-03T23:41:59.045Z,100.00
2023-02-03T23:45:02.796Z,100.00
2023-02-03T23:48:06.500Z,100.00
2023-02-03T23:51:09.420Z,100.00
2023-02-03T23:54:12.583Z,99.38
2023-02-03T23:57:15.430Z,99.34
